createdAt,value
2023-05-01T00:00:29.418Z,82.59
2023-05-01T00:02:56.690Z,82.19
2023-05-01T00:05:23.767Z,84.02
2023-05-01T00:07:50.958Z,82.73
2023-05-01T00:10:20.315Z,82.65
2023-05-01T00:12:47.404Z,82.24
2023-05-01T00:15:14.562Z,82.40
2023-05-01T00:17:41.545Z,83.68
2023-05-01T00:20:09.080Z,84.50
2023-05-01T00:22:35.990Z,83.54
2023-05-01T00:25:02.831Z,85.31
2023-05-01T00:27:29.667Z,84.27
2023-05-01T00:29:56.732Z,85.45
2023-05-01T00:32:24.007Z,86.55
2023-05-01T00:34:50.908Z,86.72
2023-05-01T00:37:18.520Z,85.67
2023-05-01T00:39:47.845Z,86.58
2023-05-01T00:42:15.043Z,85.95
2023-05-01T00:44:41.951Z,87.67
2023-05-01T00:47:09.079Z,86.70
2023-05-01T00:49:36.475Z,86.35
2023-05-01T00:52:03.760Z,88.35
2023-05-01T00:54:30.993Z,88.41
2023-05-01T00:56:58.515Z,88.20
2023-05-01T00:59:25.723Z,87.77
2023-05-01T01:01:54.957Z,87.34
2023-05-01T01:04:23.317Z,87.94
2023-05-01T01:07:08.260Z,87.41
2023-05-01T01:10:20.470Z,87.76
2023-05-01T01:12:58.841Z,86.54
2023-05-01T01:16:19.791Z,86.89
2023-05-01T01:18:50.102Z,86.43
2023-05-01T01:21:39.941Z,86.89
2023-05-01T01:24:44.981Z,86.27
2023-05-01T01:27:39.112Z,86.52
2023-05-01T01:30:23.283Z,86.83
2023-05-01T01:33:10.598Z,86.13
2023-05-01T01:35:42.814Z,87.17
2023-05-01T01:38:22.916Z,86.63
2023-05-01T01:41:22.054Z,86.91
2023-05-01T01:43:58.032Z,88.21
2023-05-01T01:46:26.450Z,87.36
2023-05-01T01:48:57.410Z,86.77
2023-05-01T01:51:27.241Z,86.51
2023-05-01T01:53:58.746Z,86.24
2023-05-01T01:56:28.398Z,86.17
2023-05-01T01:58:57.479Z,85.22
2023-05-01T02:01:25.796Z,85.76
2023-05-01T02:03:53.888Z,85.50
2023-05-01T02:06:23.226Z,86.05
2023-05-01T02:08:51.216Z,86.28
2023-05-01T02:11:21.313Z,85.71
2023-05-01T02:13:49.718Z,85.98
2023-05-01T02:16:17.957Z,85.39
2023-05-01T02:18:46.836Z,85.75
2023-05-01T02:21:16.444Z,85.72
2023-05-01T02:23:43.428Z,85.31
2023-05-01T02:26:17.179Z,85.73
2023-05-01T02:28:44.464Z,84.71
2023-05-01T02:31:11.779Z,84.69
2023-05-01T02:33:39.038Z,84.98
2023-05-01T02:36:06.176Z,84.25
2023-05-01T02:38:35.887Z,84.34
2023-05-01T02:41:04.135Z,84.51
2023-05-01T02:43:33.923Z,83.35
2023-05-01T02:46:04.904Z,83.33
2023-05-01T02:48:33.988Z,83.67
2023-05-01T02:51:02.218Z,83.45
2023-05-01T02:53:29.600Z,84.89
2023-05-01T02:55:59.718Z,84.66
2023-05-01T02:58:27.229Z,85.04
2023-05-01T03:00:53.929Z,83.96
2023-05-01T03:03:20.901Z,84.92
2023-05-01T03:05:48.082Z,83.60
2023-05-01T03:08:15.273Z,84.56
2023-05-01T03:10:43.527Z,84.61
2023-05-01T03:13:13.758Z,83.78
2023-05-01T03:15:41.441Z,84.31
2023-05-01T03:18:09.702Z,84.08
2023-05-01T03:20:36.874Z,84.76
2023-05-01T03:23:03.860Z,84.26
2023-05-01T03:25:30.657Z,83.74
2023-05-01T03:27:57.456Z,83.73
2023-05-01T03:30:24.327Z,82.43
2023-05-01T03:32:52.265Z,82.79
2023-05-01T03:35:19.436Z,82.36
2023-05-01T03:37:46.348Z,82.15
2023-05-01T03:40:13.922Z,81.73
2023-05-01T03:42:40.636Z,82.38
2023-05-01T03:45:08.293Z,82.19
2023-05-01T03:47:35.240Z,82.00
2023-05-01T03:50:02.679Z,81.69
2023-05-01T03:52:29.485Z,81.43
2023-05-01T03:54:57.487Z,81.15
2023-05-01T03:57:24.559Z,79.61
2023-05-01T03:59:51.301Z,81.17
2023-05-01T04:02:18.598Z,80.27
2023-05-01T04:04:45.579Z,79.51
2023-05-01T04:07:13.863Z,79.63
2023-05-01T04:09:40.825Z,79.99
2023-05-01T04:12:07.831Z,79.32
2023-05-01T04:14:34.690Z,78.87
2023-05-01T04:17:01.993Z,78.30
2023-05-01T04:19:28.921Z,77.55
2023-05-01T04:21:55.708Z,77.28
2023-05-01T04:24:22.692Z,77.19
2023-05-01T04:26:50.491Z,76.58
2023-05-01T04:29:17.392Z,76.39
2023-05-01T04:31:44.562Z,75.96
2023-05-01T04:34:11.598Z,75.68
2023-05-01T04:36:38.446Z,74.65
2023-05-01T04:39:05.638Z,74.07
2023-05-01T04:41:32.575Z,71.83
2023-05-01T04:43:59.484Z,71.52
2023-05-01T04:46:26.366Z,70.51
2023-05-01T04:48:53.239Z,68.99
2023-05-01T04:51:20.872Z,66.86
2023-05-01T04:53:47.909Z,64.99
2023-05-01T04:56:16.714Z,62.77
2023-05-01T04:58:45.061Z,60.95
2023-05-01T05:01:12.111Z,61.26
2023-05-01T05:03:39.317Z,60.11
2023-05-01T05:06:06.536Z,59.61
2023-05-01T05:08:33.652Z,59.33
2023-05-01T05:11:01.216Z,58.65
2023-05-01T05:13:29.191Z,56.20
2023-05-01T05:15:56.136Z,55.36
2023-05-01T05:18:23.289Z,53.65
2023-05-01T05:20:50.366Z,53.14
2023-05-01T05:23:17.269Z,51.77
2023-05-01T05:25:44.116Z,52.48
2023-05-01T05:28:10.982Z,51.46
2023-05-01T05:30:38.639Z,51.13
2023-05-01T05:33:10.045Z,49.67
2023-05-01T05:35:37.074Z,47.95
2023-05-01T05:38:04.036Z,46.34
2023-05-01T05:40:31.313Z,44.06
2023-05-01T05:42:58.301Z,43.65
2023-05-01T05:45:25.458Z,43.05
2023-05-01T05:47:52.398Z,41.90
2023-05-01T05:50:19.737Z,38.75
2023-05-01T05:52:46.781Z,38.61
2023-05-01T05:55:13.762Z,37.23
2023-05-01T05:57:41.076Z,36.48
2023-05-01T06:00:10.436Z,34.81
2023-05-01T06:02:37.872Z,32.97
2023-05-01T06:05:05.496Z,30.89
2023-05-01T06:07:32.440Z,30.80
2023-05-01T06:10:05.476Z,29.00
2023-05-01T06:12:34.133Z,27.92
2023-05-01T06:15:04.141Z,26.93
2023-05-01T06:17:31.358Z,26.66
2023-05-01T06:19:58.819Z,26.98
2023-05-01T06:22:25.834Z,28.13
2023-05-01T06:24:52.839Z,26.22
2023-05-01T06:27:19.785Z,24.96
2023-05-01T06:29:46.797Z,22.56
2023-05-01T06:32:13.716Z,24.10
2023-05-01T06:34:40.625Z,25.41
2023-05-01T06:37:08.048Z,24.31
2023-05-01T06:39:35.177Z,26.37
2023-05-01T06:42:03.561Z,25.28
2023-05-01T06:44:32.715Z,25.35
2023-05-01T06:47:02.087Z,23.90
2023-05-01T06:49:29.420Z,25.57
2023-05-01T06:51:56.566Z,24.85
2023-05-01T06:54:26.343Z,24.97
2023-05-01T06:56:53.924Z,28.26
2023-05-01T06:59:20.860Z,26.66
2023-05-01T07:01:48.000Z,27.94
2023-05-01T07:04:14.982Z,26.99
2023-05-01T07:06:42.174Z,26.17
2023-05-01T07:09:09.238Z,25.60
2023-05-01T07:11:36.959Z,26.55
2023-05-01T07:14:04.359Z,29.18
2023-05-01T07:16:31.642Z,28.76
2023-05-01T07:18:58.821Z,26.41
2023-05-01T07:21:25.729Z,23.35
2023-05-01T07:23:52.755Z,23.72
2023-05-01T07:26:20.504Z,24.02
2023-05-01T07:28:47.390Z,24.82
2023-05-01T07:31:14.524Z,26.20
2023-05-01T07:33:42.285Z,24.97
2023-05-01T07:36:09.629Z,25.40
2023-05-01T07:38:36.601Z,25.59
2023-05-01T07:41:03.767Z,24.69
2023-05-01T07:43:30.853Z,24.12
2023-05-01T07:46:01.759Z,25.41
2023-05-01T07:48:29.312Z,27.50
2023-05-01T07:50:57.294Z,26.56
2023-05-01T07:53:24.341Z,24.18
2023-05-01T07:55:51.271Z,23.51
2023-05-01T07:58:18.288Z,23.49
2023-05-01T08:00:47.863Z,22.90
2023-05-01T08:03:14.906Z,24.18
2023-05-01T08:05:42.703Z,22.77
2023-05-01T08:08:10.484Z,19.68
2023-05-01T08:10:37.434Z,19.09
2023-05-01T08:13:04.316Z,19.29
2023-05-01T08:15:31.526Z,20.92
2023-05-01T08:17:58.611Z,22.40
2023-05-01T08:20:25.463Z,23.53
2023-05-01T08:22:52.228Z,23.45
2023-05-01T08:25:19.449Z,23.56
2023-05-01T08:27:46.626Z,22.49
2023-05-01T08:30:13.702Z,20.80
2023-05-01T08:32:41.004Z,19.55
2023-05-01T08:35:08.493Z,16.30
2023-05-01T08:37:35.677Z,16.50
2023-05-01T08:40:08.616Z,16.08
2023-05-01T08:42:37.645Z,14.45
2023-05-01T08:45:08.894Z,13.01
2023-05-01T08:47:40.582Z,11.68
2023-05-01T08:50:14.480Z,10.92
2023-05-01T08:52:44.806Z,9.76
2023-05-01T08:55:16.096Z,9.70
2023-05-01T08:57:46.923Z,9.54
2023-05-01T09:00:21.537Z,9.60
2023-05-01T09:02:51.080Z,9.90
2023-05-01T09:05:19.199Z,9.91
2023-05-01T09:07:46.959Z,10.97
2023-05-01T09:10:21.669Z,8.83
2023-05-01T09:12:54.322Z,7.53
2023-05-01T09:15:21.781Z,9.35
2023-05-01T09:17:48.980Z,9.26
2023-05-01T09:20:18.323Z,9.37
2023-05-01T09:22:45.300Z,11.06
2023-05-01T09:25:12.450Z,8.84
2023-05-01T09:27:39.536Z,8.18
2023-05-01T09:30:07.782Z,7.96
2023-05-01T09:32:35.235Z,7.58
2023-05-01T09:35:15.484Z,7.84
2023-05-01T09:37:42.937Z,8.69
2023-05-01T09:40:12.215Z,7.45
2023-05-01T09:42:57.669Z,6.19
2023-05-01T09:45:26.847Z,6.80
2023-05-01T09:48:11.595Z,7.59
2023-05-01T09:50:42.724Z,9.13
2023-05-01T09:53:11.347Z,9.47
2023-05-01T09:55:38.476Z,9.36
2023-05-01T09:58:06.117Z,9.78
2023-05-01T10:00:50.163Z,8.24
2023-05-01T10:03:17.118Z,8.04
2023-05-01T10:05:44.929Z,9.07
2023-05-01T10:08:15.369Z,9.54
2023-05-01T10:10:45.912Z,10.14
2023-05-01T10:13:17.662Z,10.88
2023-05-01T10:15:49.424Z,10.24
2023-05-01T10:18:17.651Z,9.59
2023-05-01T10:20:44.667Z,9.99
2023-05-01T10:23:12.086Z,9.28
2023-05-01T10:25:42.136Z,9.14
2023-05-01T10:28:10.371Z,7.31
2023-05-01T10:30:40.029Z,7.58
2023-05-01T10:33:07.036Z,8.43
2023-05-01T10:35:40.472Z,11.65
2023-05-01T10:38:11.189Z,10.93
2023-05-01T10:40:41.458Z,8.98
2023-05-01T10:43:29.163Z,10.64
2023-05-01T10:46:17.104Z,9.04
2023-05-01T10:48:47.016Z,9.13
2023-05-01T10:51:27.500Z,8.69
2023-05-01T10:54:16.333Z,9.48
2023-05-01T10:56:44.069Z,9.81
2023-05-01T10:59:12.275Z,10.32
2023-05-01T11:01:47.960Z,11.41
2023-05-01T11:04:23.929Z,10.27
2023-05-01T11:07:06.100Z,9.92
2023-05-01T11:09:42.571Z,11.73
2023-05-01T11:12:14.274Z,11.00
2023-05-01T11:15:04.460Z,13.01
2023-05-01T11:17:44.813Z,12.23
2023-05-01T11:20:37.489Z,13.97
2023-05-01T11:23:04.673Z,12.66
2023-05-01T11:25:33.171Z,12.64
2023-05-01T11:28:02.456Z,12.78
2023-05-01T11:30:39.696Z,11.38
2023-05-01T11:33:10.112Z,12.63
2023-05-01T11:35:40.096Z,13.59
2023-05-01T11:38:16.547Z,15.80
2023-05-01T11:40:46.163Z,15.38
2023-05-01T11:43:12.985Z,14.81
2023-05-01T11:45:42.528Z,13.77
2023-05-01T11:48:19.229Z,13.24
2023-05-01T11:50:46.704Z,11.97
2023-05-01T11:53:23.389Z,13.60
2023-05-01T11:55:51.734Z,13.53
2023-05-01T11:58:19.613Z,13.95
2023-05-01T12:00:50.892Z,15.60
2023-05-01T12:03:18.247Z,16.67
2023-05-01T12:05:45.853Z,14.65
2023-05-01T12:08:19.711Z,16.43
2023-05-01T12:11:00.395Z,15.73
2023-05-01T12:13:27.349Z,16.33
2023-05-01T12:15:55.898Z,17.05
2023-05-01T12:18:23.192Z,19.63
2023-05-01T12:20:53.519Z,19.86
2023-05-01T12:23:30.741Z,21.08
2023-05-01T12:25:58.330Z,20.62
2023-05-01T12:28:25.298Z,20.74
2023-05-01T12:30:53.224Z,23.04
2023-05-01T12:33:21.556Z,23.89
2023-05-01T12:35:50.781Z,22.68
2023-05-01T12:38:20.364Z,22.14
2023-05-01T12:40:55.041Z,22.53
2023-05-01T12:43:30.027Z,22.03
2023-05-01T12:45:57.609Z,21.18
2023-05-01T12:48:25.014Z,22.78
2023-05-01T12:50:55.684Z,23.00
2023-05-01T12:53:24.043Z,21.80
2023-05-01T12:55:52.954Z,22.25
2023-05-01T12:58:20.390Z,20.60
2023-05-01T13:00:53.826Z,21.92
2023-05-01T13:03:31.294Z,21.30
2023-05-01T13:06:01.023Z,21.88
2023-05-01T13:08:29.163Z,24.48
2023-05-01T13:11:01.347Z,23.26
2023-05-01T13:13:34.472Z,22.73
2023-05-01T13:16:10.067Z,21.86
2023-05-01T13:18:48.308Z,22.39
2023-05-01T13:21:17.944Z,21.51
2023-05-01T13:23:59.343Z,22.84
2023-05-01T13:26:33.826Z,25.31
2023-05-01T13:29:02.138Z,23.81
2023-05-01T13:31:30.213Z,23.45
2023-05-01T13:33:59.094Z,23.54
2023-05-01T13:36:29.126Z,23.16
2023-05-01T13:38:57.140Z,23.21
2023-05-01T13:41:29.346Z,23.00
2023-05-01T13:43:57.659Z,24.59
2023-05-01T13:46:27.368Z,22.04
2023-05-01T13:48:54.451Z,22.90
2023-05-01T13:51:27.622Z,23.23
2023-05-01T13:53:56.559Z,24.41
2023-05-01T13:56:23.805Z,22.55
2023-05-01T13:58:51.205Z,22.23
2023-05-01T14:01:23.006Z,23.88
2023-05-01T14:03:52.384Z,23.20
2023-05-01T14:06:21.254Z,24.54
2023-05-01T14:08:51.846Z,23.83
2023-05-01T14:11:20.755Z,25.00
2023-05-01T14:13:49.871Z,24.82
2023-05-01T14:16:25.929Z,24.11
2023-05-01T14:18:57.596Z,24.40
2023-05-01T14:21:28.308Z,24.82
2023-05-01T14:23:57.248Z,25.47
2023-05-01T14:26:24.973Z,25.30
2023-05-01T14:28:52.542Z,25.99
2023-05-01T14:31:28.699Z,24.87
2023-05-01T14:33:58.054Z,23.95
2023-05-01T14:36:25.796Z,24.98
2023-05-01T14:38:53.410Z,25.06
2023-05-01T14:41:21.327Z,25.09
2023-05-01T14:43:54.321Z,24.42
2023-05-01T14:46:31.107Z,25.03
2023-05-01T14:48:59.656Z,25.28
2023-05-01T14:51:30.402Z,25.54
2023-05-01T14:53:57.455Z,26.12
2023-05-01T14:56:24.489Z,28.28
2023-05-01T14:58:51.518Z,28.73
2023-05-01T15:01:19.233Z,29.20
2023-05-01T15:03:46.514Z,29.88
2023-05-01T15:06:13.953Z,30.05
2023-05-01T15:08:41.073Z,30.95
2023-05-01T15:11:07.852Z,30.24
2023-05-01T15:13:34.816Z,31.82
2023-05-01T15:16:04.559Z,32.23
2023-05-01T15:18:31.699Z,32.63
2023-05-01T15:20:58.706Z,32.06
2023-05-01T15:23:27.823Z,30.48
2023-05-01T15:25:55.101Z,30.26
2023-05-01T15:28:22.279Z,30.40
2023-05-01T15:30:49.241Z,30.62
2023-05-01T15:33:20.980Z,31.79
2023-05-01T15:35:49.034Z,32.56
2023-05-01T15:38:16.077Z,34.28
2023-05-01T15:40:46.211Z,33.82
2023-05-01T15:43:13.261Z,33.31
2023-05-01T15:45:43.876Z,33.30
2023-05-01T15:48:16.303Z,33.38
2023-05-01T15:50:43.619Z,34.02
2023-05-01T15:53:10.599Z,35.16
2023-05-01T15:55:37.614Z,34.28
2023-05-01T15:58:04.700Z,35.06
2023-05-01T16:00:32.989Z,35.04
2023-05-01T16:03:02.062Z,35.25
2023-05-01T16:05:29.012Z,35.53
2023-05-01T16:08:00.243Z,35.93
2023-05-01T16:10:28.087Z,36.76
2023-05-01T16:12:55.248Z,35.57
2023-05-01T16:15:22.975Z,36.34
2023-05-01T16:17:51.620Z,36.52
2023-05-01T16:20:18.634Z,37.08
2023-05-01T16:22:45.515Z,37.34
2023-05-01T16:25:13.140Z,37.56
2023-05-01T16:27:42.616Z,38.81
2023-05-01T16:30:10.708Z,38.33
2023-05-01T16:32:39.870Z,37.80
2023-05-01T16:35:07.439Z,38.04
2023-05-01T16:37:34.746Z,38.56
2023-05-01T16:40:02.214Z,38.95
2023-05-01T16:42:29.544Z,38.99
2023-05-01T16:44:59.421Z,38.90
2023-05-01T16:47:26.433Z,39.79
2023-05-01T16:49:59.995Z,39.10
2023-05-01T16:52:27.703Z,39.58
2023-05-01T16:54:55.033Z,40.78
2023-05-01T16:57:22.840Z,40.32
2023-05-01T16:59:49.915Z,40.04
2023-05-01T17:02:17.036Z,41.45
2023-05-01T17:04:45.027Z,41.91
2023-05-01T17:07:12.363Z,42.61
2023-05-01T17:09:39.298Z,43.26
2023-05-01T17:12:12.452Z,42.35
2023-05-01T17:14:39.424Z,42.31
2023-05-01T17:17:09.453Z,42.72
2023-05-01T17:19:39.268Z,43.09
2023-05-01T17:22:07.769Z,42.94
2023-05-01T17:24:36.244Z,42.74
2023-05-01T17:27:06.047Z,42.56
2023-05-01T17:29:33.274Z,43.21
2023-05-01T17:32:00.318Z,43.01
2023-05-01T17:34:27.402Z,42.87
2023-05-01T17:36:56.508Z,43.69
2023-05-01T17:39:26.143Z,43.50
2023-05-01T17:41:52.994Z,43.35
2023-05-01T17:44:20.033Z,44.61
2023-05-01T17:46:46.764Z,43.91
2023-05-01T17:49:14.505Z,44.25
2023-05-01T17:51:41.687Z,43.70
2023-05-01T17:54:08.906Z,43.60
2023-05-01T17:56:36.025Z,44.59
2023-05-01T17:59:03.163Z,43.60
2023-05-01T18:01:30.940Z,44.65
2023-05-01T18:04:00.819Z,45.28
2023-05-01T18:06:28.046Z,45.32
2023-05-01T18:08:55.086Z,46.03
2023-05-01T18:11:22.205Z,45.08
2023-05-01T18:13:49.218Z,47.30
2023-05-01T18:16:19.293Z,46.89
2023-05-01T18:18:48.525Z,47.72
2023-05-01T18:21:18.189Z,47.50
2023-05-01T18:23:46.479Z,48.88
2023-05-01T18:26:14.937Z,48.69
2023-05-01T18:28:41.992Z,49.80
2023-05-01T18:31:10.650Z,51.28
2023-05-01T18:33:37.548Z,51.11
2023-05-01T18:36:04.726Z,51.66
2023-05-01T18:38:32.058Z,52.05
2023-05-01T18:40:58.904Z,52.19
2023-05-01T18:43:25.756Z,54.17
2023-05-01T18:45:54.218Z,54.08
2023-05-01T18:48:21.358Z,54.57
2023-05-01T18:50:57.522Z,55.41
2023-05-01T18:53:34.920Z,55.83
2023-05-01T18:56:01.991Z,56.34
2023-05-01T18:58:29.156Z,57.38
2023-05-01T19:00:56.612Z,57.01
2023-05-01T19:03:23.696Z,58.71
2023-05-01T19:05:50.705Z,58.74
2023-05-01T19:08:17.827Z,59.35
2023-05-01T19:10:44.864Z,59.63
2023-05-01T19:13:12.560Z,59.69
2023-05-01T19:15:39.645Z,60.14
2023-05-01T19:18:06.771Z,60.87
2023-05-01T19:20:33.919Z,60.83
2023-05-01T19:23:01.558Z,62.09
2023-05-01T19:25:29.767Z,62.33
2023-05-01T19:27:57.715Z,62.52
2023-05-01T19:30:24.703Z,63.13
2023-05-01T19:32:52.293Z,63.69
2023-05-01T19:35:19.180Z,63.44
2023-05-01T19:37:48.149Z,63.82
2023-05-01T19:40:16.435Z,63.76
2023-05-01T19:42:43.589Z,64.37
2023-05-01T19:45:10.880Z,64.81
2023-05-01T19:47:38.007Z,64.98
2023-05-01T19:50:05.183Z,64.75
2023-05-01T19:52:34.841Z,65.72
2023-05-01T19:55:04.424Z,65.29
2023-05-01T19:57:31.552Z,65.30
2023-05-01T20:00:02.015Z,64.95
2023-05-01T20:02:29.682Z,65.64
2023-05-01T20:04:56.827Z,65.53
2023-05-01T20:07:23.812Z,65.83
2023-05-01T20:09:51.144Z,66.11
2023-05-01T20:12:18.665Z,65.97
2023-05-01T20:14:45.783Z,65.78
2023-05-01T20:17:12.718Z,67.38
2023-05-01T20:19:40.094Z,67.20
2023-05-01T20:22:07.157Z,67.32
2023-05-01T20:24:34.360Z,66.99
2023-05-01T20:27:01.284Z,66.86
2023-05-01T20:29:28.491Z,66.87
2023-05-01T20:31:56.076Z,66.46
2023-05-01T20:34:23.881Z,67.31
2023-05-01T20:36:50.929Z,67.30
2023-05-01T20:39:17.976Z,68.60
2023-05-01T20:41:45.176Z,68.36
2023-05-01T20:44:12.154Z,68.64
2023-05-01T20:46:39.577Z,68.97
2023-05-01T20:49:08.948Z,68.78
2023-05-01T20:51:36.473Z,68.76
2023-05-01T20:54:03.343Z,69.04
2023-05-01T20:56:30.292Z,68.94
2023-05-01T20:58:57.304Z,69.19
2023-05-01T21:01:24.139Z,69.24
2023-05-01T21:03:51.618Z,69.43
2023-05-01T21:06:18.927Z,69.13
2023-05-01T21:08:46.432Z,69.23
2023-05-01T21:11:13.471Z,69.52
2023-05-01T21:13:40.256Z,69.90
2023-05-01T21:16:14.950Z,69.38
2023-05-01T21:18:42.561Z,68.63
2023-05-01T21:21:10.362Z,67.47
2023-05-01T21:23:45.098Z,67.98
2023-05-01T21:26:14.157Z,67.55
2023-05-01T21:28:41.321Z,67.40
2023-05-01T21:31:13.978Z,67.28
2023-05-01T21:33:45.980Z,66.75
2023-05-01T21:36:17.151Z,66.12
2023-05-01T21:38:44.124Z,66.25
2023-05-01T21:41:15.817Z,65.34
2023-05-01T21:43:43.083Z,65.37
2023-05-01T21:46:17.493Z,65.12
2023-05-01T21:48:50.873Z,65.13
2023-05-01T21:51:18.331Z,65.75
2023-05-01T21:53:45.308Z,65.64
2023-05-01T21:56:14.782Z,65.66
2023-05-01T21:58:41.706Z,66.23
2023-05-01T22:01:09.794Z,65.90
2023-05-01T22:03:40.928Z,65.65
2023-05-01T22:06:08.076Z,66.07
2023-05-01T22:08:34.948Z,65.51
2023-05-01T22:11:02.692Z,64.96
2023-05-01T22:13:33.843Z,65.71
2023-05-01T22:16:01.148Z,65.46
2023-05-01T22:18:29.337Z,65.72
2023-05-01T22:20:56.443Z,65.94
2023-05-01T22:23:24.192Z,66.24
2023-05-01T22:25:51.319Z,66.20
2023-05-01T22:28:18.356Z,65.52
2023-05-01T22:30:47.162Z,65.35
2023-05-01T22:33:14.064Z,64.85
2023-05-01T22:35:40.945Z,65.17
2023-05-01T22:38:08.651Z,65.60
2023-05-01T22:40:36.150Z,65.09
2023-05-01T22:43:03.075Z,65.41
2023-05-01T22:45:30.277Z,66.74
2023-05-01T22:47:57.426Z,67.96
2023-05-01T22:50:24.348Z,68.52
2023-05-01T22:52:51.327Z,69.49
2023-05-01T22:55:18.091Z,70.03
2023-05-01T22:57:46.007Z,70.83
2023-05-01T23:00:14.088Z,70.07
2023-05-01T23:02:41.232Z,69.26
2023-05-01T23:05:09.296Z,69.76
2023-05-01T23:07:37.047Z,69.82
2023-05-01T23:10:07.559Z,71.19
2023-05-01T23:12:34.593Z,72.00
2023-05-01T23:15:01.499Z,72.95
2023-05-01T23:17:34.912Z,73.21
2023-05-01T23:20:02.546Z,73.49
2023-05-01T23:22:30.493Z,73.80
2023-05-01T23:24:57.727Z,74.18
2023-05-01T23:27:24.703Z,74.42
2023-05-01T23:29:56.731Z,74.49
2023-05-01T23:32:27.105Z,75.28
2023-05-01T23:34:55.528Z,74.63
2023-05-01T23:37:22.637Z,74.04
2023-05-01T23:39:49.601Z,75.27
2023-05-01T23:42:16.625Z,75.08
2023-05-01T23:44:43.803Z,75.20
2023-05-01T23:47:11.085Z,74.17
2023-05-01T23:49:38.462Z,74.24
2023-05-01T23:52:06.937Z,74.38
2023-05-01T23:54:33.994Z,74.10
2023-05-01T23:57:01.943Z,74.28
2023-05-01T23:59:29.022Z,74.11
